Pagina principale
METAR-TAF:

METAR-TAF

Aeroporti :

Alpnach, Svizzera

latitudine: 46-56-19N, longitudine: 8-17-03E, altezza: 440 m

Osservazione

Il bollettino è stato emesso 39 minuti fa, alle 16:20 UTC
Vento 3 kt da nord-ovest
Temperature 12°C
Umidità 76%
Pressione 1027 hPa
Visibilità 10 km o più
Nubi sparse ad un'altezza di 10000 ft
Nuvoloso ad un'altezza di 13000 ft

METAR: LSMA 231620Z AUTO 32003KT 9999NDV SCT100 BKN130 12/08 Q1027 RMK

Ora: 18:59 (16:59 UTC)


TAF: mancante

Osservazioni e previsioni meteorologiche di più di 4000 aeroporti (messaggi METAR e TAF).

Le stazioni disponibili sono rappresentate dai dischi gialli e rossi sulla carta.

Puntare il mouse per vedere il nome della stazione.

Clicca sopra per visualizzare le osservazioni e previsioni meteorologiche.

Per cambiare la mappa : fare clic sui pulsanti verdi con una croce nera per ingrandire, il pulsante verde con un trattino per diminuire, o sulla freccia verde per le mappe adiacenti.


METAR-TAF: